Time;durP1;ratioP1;P1;durP2;ratioP2;P2;SDS_P1;SDS_P2;PMS_P1;PMS_P2;Temp;Humidity;BMP_temperature;BMP_pressure;BME280_temperature;BME280_humidity;BME280_pressure;Samples;Min_cycle;Max_cycle;Signal;HPM_P1;HPM_P2
2021/11/17 05:16:05;;;;;;;6.45;2.13;;;;;;;5.61;99.73;99224.91;5781582;22;20062;-81
2021/11/17 05:18:49;;;;;;;1.60;1.50;;;;;;;5.68;99.10;99220.66;4974358;28;20026;-81
2021/11/17 05:21:31;;;;;;;2.38;2.15;;;;;;;5.63;99.57;99230.03;4974223;28;20027;-81
2021/11/17 05:24:14;;;;;;;2.03;1.70;;;;;;;5.61;99.37;99235.19;4974211;28;20030;-81
2021/11/17 05:26:55;;;;;;;1.45;1.38;;;;;;;5.58;99.27;99226.56;4974252;28;20380;-76
2021/11/17 05:29:26;;;;;;;2.08;1.90;;;;;;;5.48;100.00;99228.19;4973901;28;20026;-76
2021/11/17 05:32:04;;;;;;;1.58;1.45;;;;;;;5.51;100.00;99227.34;4988452;23;20054;-78
2021/11/17 05:34:52;;;;;;;2.97;2.47;;;;;;;5.40;100.00;99235.81;4993490;28;20026;-78
2021/11/17 05:37:42;;;;;;;1.35;1.35;;;;;;;5.35;100.00;99227.19;4993089;28;20109;-78
2021/11/17 05:40:20;;;;;;;1.75;1.45;;;;;;;5.32;100.00;99229.75;4993313;28;20092;-78
2021/11/17 05:43:09;;;;;;;4.15;2.28;;;;;;;5.38;100.00;99227.25;4993501;28;20057;-78
2021/11/17 05:45:56;;;;;;;2.05;1.77;;;;;;;5.28;100.00;99238.28;4993417;28;20069;-78
2021/11/17 05:48:36;;;;;;;2.10;2.00;;;;;;;5.25;100.00;99235.66;4993339;28;20115;-78
2021/11/17 05:51:21;;;;;;;1.58;1.48;;;;;;;5.46;100.00;99240.16;4993099;28;20053;-78
2021/11/17 05:53:52;;;;;;;1.80;1.70;;;;;;;5.36;100.00;99239.19;4993210;28;20111;-77
2021/11/17 05:56:30;;;;;;;3.72;1.25;;;;;;;5.40;100.00;99242.66;4993146;28;20559;-76
2021/11/17 05:59:10;;;;;;;1.00;1.00;;;;;;;5.58;100.00;99249.69;4863639;28;20041;-77
2021/11/17 06:01:53;;;;;;;2.95;2.50;;;;;;;5.60;100.00;99253.13;4932779;28;20037;-77
2021/11/17 06:04:18;;;;;;;1.00;1.00;;;;;;;5.44;100.00;99252.13;4887080;28;20044;-77
2021/11/17 06:06:44;;;;;;;1.75;1.40;;;;;;;5.43;100.00;99259.84;4863126;28;20132;-77
2021/11/17 06:09:09;;;;;;;2.28;2.10;;;;;;;5.62;100.00;99256.59;4912574;28;20109;-77
2021/11/17 06:11:45;;;;;;;2.90;1.33;;;;;;;5.72;100.00;99260.97;4902541;28;20060;-77
2021/11/17 06:14:17;;;;;;;1.80;1.70;;;;;;;5.66;100.00;99263.50;4887576;28;20093;-77
2021/11/17 06:16:49;;;;;;;2.13;2.00;;;;;;;5.68;100.00;99266.94;4863738;28;20084;-77
2021/11/17 06:19:17;;;;;;;1.77;1.58;;;;;;;5.76;99.93;99265.31;4912234;28;20073;-77
2021/11/17 06:21:44;;;;;;;3.92;1.67;;;;;;;5.82;100.00;99264.50;4919392;28;20045;-77
2021/11/17 06:24:12;;;;;;;0.68;0.68;;;;;;;5.53;100.00;99277.06;4946300;28;20487;-77
2021/11/17 06:26:41;;;;;;;1.92;1.77;;;;;;;5.57;100.00;99271.13;4895971;28;20068;-78
2021/11/17 06:29:14;;;;;;;2.15;2.00;;;;;;;5.72;100.00;99280.69;4953643;28;20117;-78
2021/11/17 06:31:40;;;;;;;2.03;1.75;;;;;;;5.52;100.00;99285.63;5000907;28;20483;-77
2021/11/17 06:34:29;;;;;;;5.00;1.98;;;;;;;5.57;100.00;99283.97;5012143;28;20497;-77
2021/11/17 06:36:55;;;;;;;2.75;2.58;;;;;;;5.47;100.00;99292.44;5012198;28;20538;-78
2021/11/17 06:39:21;;;;;;;1.42;1.33;;;;;;;5.49;100.00;99291.59;4962123;28;20113;-78
2021/11/17 06:41:47;;;;;;;1.08;1.08;;;;;;;5.29;100.00;99288.81;5012046;28;20105;-77
2021/11/17 06:44:12;;;;;;;5.75;2.10;;;;;;;5.43;100.00;99295.81;5012116;28;20416;-78
2021/11/17 06:46:38;;;;;;;1.55;1.48;;;;;;;5.58;100.00;99303.69;5012120;28;20423;-78
2021/11/17 06:49:04;;;;;;;3.33;2.17;;;;;;;5.56;100.00;99300.22;5011845;28;20030;-77
2021/11/17 06:51:29;;;;;;;1.52;1.40;;;;;;;5.28;100.00;99297.38;4962395;28;20046;-78
2021/11/17 06:53:55;;;;;;;7.55;2.25;;;;;;;5.10;100.00;99312.53;5012019;28;20034;-77
2021/11/17 06:56:21;;;;;;;2.28;1.55;;;;;;;5.08;100.00;99309.09;5012067;28;20053;-78
2021/11/17 06:58:46;;;;;;;3.28;1.95;;;;;;;5.04;100.00;99309.91;5011111;28;20030;-78
2021/11/17 07:01:12;;;;;;;1.58;1.48;;;;;;;5.11;100.00;99307.41;5000200;28;20037;-78
2021/11/17 07:03:37;;;;;;;1.75;1.65;;;;;;;5.04;100.00;99307.34;5008791;28;20124;-77
2021/11/17 07:06:03;;;;;;;1.42;1.42;;;;;;;4.97;100.00;99318.34;5011999;28;20100;-78
2021/11/17 07:08:28;;;;;;;1.83;1.73;;;;;;;5.00;100.00;99320.97;5011805;28;20033;-78
2021/11/17 07:10:54;;;;;;;4.38;2.20;;;;;;;5.07;100.00;99320.19;5011639;28;20056;-78
2021/11/17 07:13:19;;;;;;;1.17;1.17;;;;;;;5.02;100.00;99321.84;4962175;28;20097;-78
2021/11/17 07:15:45;;;;;;;1.02;0.95;;;;;;;5.06;100.00;99328.75;5011969;28;20188;-78
2021/11/17 07:18:11;;;;;;;1.48;1.38;;;;;;;5.09;100.00;99333.94;5015747;28;20022;-78
2021/11/17 07:20:37;;;;;;;1.65;1.55;;;;;;;5.23;100.00;99340.13;4997921;28;20057;-78
2021/11/17 07:23:04;;;;;;;4.93;1.92;;;;;;;5.36;100.00;99347.09;5015627;28;20457;-78
2021/11/17 07:25:30;;;;;;;7.18;1.42;;;;;;;5.37;100.00;99343.72;5015491;28;20390;-78
2021/11/17 07:27:56;;;;;;;6.80;1.65;;;;;;;5.25;100.00;99348.69;5015313;28;20029;-78
2021/11/17 07:30:24;;;;;;;1.73;1.65;;;;;;;5.37;100.00;99353.13;5007774;28;20037;-78
2021/11/17 07:32:51;;;;;;;1.75;1.65;;;;;;;5.40;100.00;99359.16;5007125;28;20150;-78
2021/11/17 07:35:18;;;;;;;2.78;2.28;;;;;;;5.44;100.00;99354.91;5015228;28;20498;-78
2021/11/17 07:37:43;;;;;;;0.88;0.88;;;;;;;5.37;100.00;99354.00;5015294;28;20501;-78
2021/11/17 07:40:12;;;;;;;3.75;3.35;;;;;;;5.47;100.00;99354.09;5014951;28;20037;-78
2021/11/17 07:42:38;;;;;;;1.80;1.70;;;;;;;5.39;100.00;99361.72;5015041;28;20041;-78
2021/11/17 07:45:05;;;;;;;1.95;1.85;;;;;;;5.36;100.00;99367.66;5015296;28;20069;-78
2021/11/17 07:47:30;;;;;;;1.35;1.25;;;;;;;5.38;99.48;99363.41;5015112;28;20104;-78
2021/11/17 07:49:56;;;;;;;2.08;1.85;;;;;;;5.45;99.78;99368.63;5014800;28;20137;-78
2021/11/17 07:52:21;;;;;;;1.83;1.58;;;;;;;5.51;100.00;99371.25;5015057;28;20109;-78
2021/11/17 07:54:47;;;;;;;2.67;1.73;;;;;;;5.45;100.00;99377.19;5014845;28;20470;-78
2021/11/17 07:57:12;;;;;;;4.13;1.75;;;;;;;5.39;99.72;99378.00;5015210;28;20029;-77
2021/11/17 07:59:40;;;;;;;4.28;1.60;;;;;;;5.53;100.00;99380.72;5007550;28;20018;-77
2021/11/17 08:02:09;;;;;;;1.30;1.20;;;;;;;5.56;100.00;99379.88;5006927;28;20113;-78
2021/11/17 08:04:37;;;;;;;2.00;1.85;;;;;;;5.76;98.38;99378.44;4915231;28;20181;-78
2021/11/17 08:07:10;;;;;;;2.75;2.53;;;;;;;5.61;97.88;99388.53;5014809;28;20061;-77
2021/11/17 08:09:35;;;;;;;3.33;1.75;;;;;;;5.82;98.14;99378.50;5014399;28;20026;-78
2021/11/17 08:12:02;;;;;;;8.07;3.10;;;;;;;6.02;98.03;99390.72;5014692;28;20080;-78
2021/11/17 08:14:27;;;;;;;1.55;1.50;;;;;;;5.92;98.18;99382.91;5014488;28;20506;-78
2021/11/17 08:16:53;;;;;;;3.85;1.88;;;;;;;5.89;97.92;99379.41;5014460;28;20034;-78
2021/11/17 08:19:18;;;;;;;1.48;1.33;;;;;;;5.80;97.84;99382.75;5014554;28;20067;-78
2021/11/17 08:21:43;;;;;;;1.67;1.58;;;;;;;5.83;96.33;99380.22;5014305;28;20025;-78
2021/11/17 08:24:09;;;;;;;4.43;1.60;;;;;;;6.06;96.87;99389.91;5014349;28;20029;-78
2021/11/17 08:26:34;;;;;;;5.43;1.30;;;;;;;6.10;95.26;99394.25;5014310;28;20044;-78
2021/11/17 08:28:59;;;;;;;1.95;1.85;;;;;;;6.06;95.40;99397.63;5011550;28;20048;-78
2021/11/17 08:31:25;;;;;;;1.77;1.67;;;;;;;6.30;95.61;99397.88;5002422;28;20046;-78
2021/11/17 08:33:52;;;;;;;2.30;1.85;;;;;;;6.38;94.52;99385.94;5012852;28;20030;-78
2021/11/17 08:36:17;;;;;;;3.80;1.90;;;;;;;6.48;92.92;99388.56;5014151;28;20079;-78
2021/11/17 08:38:43;;;;;;;1.92;1.83;;;;;;;6.46;92.92;99398.00;5014043;28;20120;-78
2021/11/17 08:41:10;;;;;;;2.72;1.38;;;;;;;6.45;92.07;99392.00;4973193;28;20017;-77
2021/11/17 08:43:36;;;;;;;1.95;1.85;;;;;;;6.52;91.68;99398.03;5013907;28;20128;-78
2021/11/17 08:46:03;;;;;;;2.65;2.35;;;;;;;6.67;90.93;99399.03;5013947;28;20456;-78
2021/11/17 08:48:31;;;;;;;3.30;2.00;;;;;;;6.54;91.11;99404.06;5013931;28;20025;-78
2021/11/17 08:50:59;;;;;;;2.97;2.28;;;;;;;6.32;92.50;99406.44;5013737;28;20026;-78
2021/11/17 08:53:29;;;;;;;1.55;1.45;;;;;;;6.38;91.01;99411.66;5013732;28;20041;-77
2021/11/17 08:55:55;;;;;;;4.10;2.80;;;;;;;6.04;91.39;99404.44;5014004;28;20026;-78
2021/11/17 08:58:22;;;;;;;1.27;1.25;;;;;;;6.03;94.41;99402.72;5013613;28;20030;-78
2021/11/17 09:00:47;;;;;;;0.80;0.80;;;;;;;5.78;94.30;99407.59;5005004;28;20041;-77
2021/11/17 09:03:14;;;;;;;0.90;0.90;;;;;;;5.46;93.69;99414.03;5007276;28;20030;-78
2021/11/17 09:05:46;;;;;;;0.50;0.50;;;;;;;5.43;95.18;99408.88;5013618;28;20032;-78
2021/11/17 09:08:13;;;;;;;1.05;1.05;;;;;;;5.53;95.69;99405.56;5013497;28;20036;-78
2021/11/17 09:10:43;;;;;;;2.58;2.35;;;;;;;5.61;95.50;99414.25;5013310;28;20025;-78
2021/11/17 09:13:09;;;;;;;0.70;0.70;;;;;;;5.63;95.36;99412.53;5013512;28;20466;-78
2021/11/17 09:15:38;;;;;;;0.90;0.90;;;;;;;5.10;95.83;99421.28;5013416;28;20044;-77
2021/11/17 09:18:06;;;;;;;0.77;0.77;;;;;;;5.41;96.58;99427.72;5013504;28;20036;-75
2021/11/17 09:20:33;;;;;;;5.43;1.73;;;;;;;5.43;96.95;99429.44;5013004;28;20025;-75
2021/11/17 09:23:00;;;;;;;0.60;0.60;;;;;;;5.51;96.38;99430.38;5013390;28;20026;-76
2021/11/17 09:25:27;;;;;;;1.23;0.80;;;;;;;5.61;95.00;99429.69;5013153;28;20018;-73
2021/11/17 09:27:54;;;;;;;3.50;2.35;;;;;;;5.51;96.65;99433.84;5013357;28;20029;-77
2021/11/17 09:30:22;;;;;;;2.42;2.25;;;;;;;5.67;95.42;99440.03;5005370;28;20037;-78
2021/11/17 09:32:50;;;;;;;1.00;1.00;;;;;;;5.88;94.85;99447.97;5004614;28;20026;-77
2021/11/17 09:35:16;;;;;;;0.70;0.70;;;;;;;5.93;94.86;99454.06;5012922;28;20545;-76
2021/11/17 09:37:44;;;;;;;1.05;1.00;;;;;;;5.79;94.57;99447.88;4995358;28;20034;-76
2021/11/17 09:40:16;;;;;;;0.60;0.60;;;;;;;5.97;93.91;99454.97;5011969;28;20033;-76
2021/11/17 09:42:42;;;;;;;0.95;0.95;;;;;;;5.87;94.00;99461.69;5011635;28;20051;-76
2021/11/17 09:45:12;;;;;;;2.15;1.50;;;;;;;5.73;93.89;99460.66;5012723;28;20101;-76
2021/11/17 09:47:39;;;;;;;2.22;1.08;;;;;;;5.78;93.15;99464.16;4995692;28;20029;-76
2021/11/17 09:50:11;;;;;;;1.25;1.15;;;;;;;5.72;93.08;99464.06;5012578;28;20034;-76
2021/11/17 09:52:48;;;;;;;2.63;1.92;;;;;;;5.54;92.84;99463.84;5012703;28;20549;-77
2021/11/17 09:55:21;;;;;;;0.85;0.85;;;;;;;5.65;92.97;99459.69;4987496;28;20045;-78
2021/11/17 09:58:04;;;;;;;0.65;0.65;;;;;;;5.67;92.63;99465.72;5011992;28;20113;-77
2021/11/17 10:00:37;;;;;;;2.40;1.60;;;;;;;5.51;91.76;99468.94;5004962;28;20524;-76
2021/11/17 10:03:09;;;;;;;0.52;0.52;;;;;;;5.41;92.60;99466.25;4997099;28;20034;-76
2021/11/17 10:06:15;;;;;;;0.82;0.82;;;;;;;5.58;93.52;99470.75;5012448;28;20026;-76
2021/11/17 10:14:23;;;;;;;1.73;1.63;;;;;;;6.05;91.13;99475.66;5012421;28;20053;-73
2021/11/17 10:16:48;;;;;;;0.95;0.95;;;;;;;5.90;89.92;99478.88;5012201;28;20022;-74
2021/11/17 10:19:29;;;;;;;0.73;0.73;;;;;;;5.97;89.42;99474.69;5012176;28;20022;-75
2021/11/17 10:21:56;;;;;;;0.70;0.70;;;;;;;6.09;90.80;99474.81;5012149;28;20022;-75
2021/11/17 10:24:21;;;;;;;0.63;0.63;;;;;;;6.05;88.50;99475.66;5012289;28;20038;-78
2021/11/17 10:26:56;;;;;;;2.47;2.20;;;;;;;6.11;88.99;99473.16;5012173;28;20025;-78
2021/11/17 10:29:22;;;;;;;1.05;0.98;;;;;;;6.32;89.42;99468.22;5006581;28;20026;-76
2021/11/17 10:32:17;;;;;;;3.13;0.90;;;;;;;6.23;89.26;99480.13;5001842;28;20026;-75
2021/11/17 10:35:11;;;;;;;0.70;0.55;;;;;;;6.15;87.38;99480.06;4962190;28;20519;-76
2021/11/17 10:37:40;;;;;;;0.57;0.57;;;;;;;6.17;88.74;99480.91;4994345;28;20036;-77
2021/11/17 10:40:29;;;;;;;0.87;0.87;;;;;;;6.14;87.15;99475.72;5012069;28;20084;-77
2021/11/17 10:43:05;;;;;;;1.40;1.35;;;;;;;6.23;87.85;99473.25;5011524;28;20280;-77
2021/11/17 10:45:46;;;;;;;1.05;1.05;;;;;;;6.21;86.35;99474.97;5012164;28;20017;-75
2021/11/17 10:48:28;;;;;;;1.15;1.15;;;;;;;6.32;86.60;99462.19;5012072;28;20054;-78
2021/11/17 10:51:18;;;;;;;1.05;1.05;;;;;;;6.62;84.85;99462.50;5013833;28;20025;-78
2021/11/17 10:53:48;;;;;;;1.52;1.05;;;;;;;6.74;82.64;99461.75;5015949;28;20483;-78
2021/11/17 10:56:17;;;;;;;1.15;1.05;;;;;;;6.93;83.84;99455.88;5016321;28;20050;-78
2021/11/17 10:58:45;;;;;;;0.80;0.80;;;;;;;6.91;81.84;99452.44;5015620;28;20025;-78
2021/11/17 11:01:26;;;;;;;0.60;0.60;;;;;;;7.05;82.76;99451.66;5004077;28;20030;-76
2021/11/17 11:03:59;;;;;;;1.15;1.05;;;;;;;7.04;80.35;99437.91;5014678;28;20483;-76
2021/11/17 11:06:40;;;;;;;1.45;1.35;;;;;;;7.31;78.63;99444.97;5015881;28;20025;-76
2021/11/17 11:09:33;;;;;;;0.60;0.60;;;;;;;7.19;77.27;99444.88;5015607;28;20079;-76
2021/11/17 11:12:01;;;;;;;0.50;0.50;;;;;;;7.11;79.27;99437.13;5015029;28;20046;-76
2021/11/17 11:14:43;;;;;;;2.17;1.00;;;;;;;6.86;78.48;99442.94;5015623;28;20030;-76
2021/11/17 11:17:30;;;;;;;0.52;0.52;;;;;;;6.54;77.69;99447.84;5015434;28;20030;-76
2021/11/17 11:20:29;;;;;;;0.60;0.60;;;;;;;6.46;78.75;99440.03;5015632;28;20477;-76
2021/11/17 11:23:13;;;;;;;3.00;0.73;;;;;;;6.38;78.02;99445.13;5015445;28;20450;-76
2021/11/17 11:25:50;;;;;;;0.80;0.80;;;;;;;6.37;78.61;99456.25;5015421;28;20026;-79
2021/11/17 11:28:24;;;;;;;1.33;0.70;;;;;;;6.34;79.20;99443.38;5015349;28;20026;-76
2021/11/17 11:31:01;;;;;;;0.60;0.60;;;;;;;6.28;78.42;99448.44;5009833;22;20061;-76
2021/11/17 11:33:33;;;;;;;1.75;0.70;;;;;;;6.22;79.92;99452.66;4991206;28;20054;-75
2021/11/17 11:36:11;;;;;;;0.68;0.68;;;;;;;6.20;80.66;99460.38;4995585;28;20394;-76
2021/11/17 11:38:48;;;;;;;1.55;1.17;;;;;;;6.17;81.33;99457.75;4995630;28;20026;-76
2021/11/17 11:41:33;;;;;;;1.25;1.00;;;;;;;6.13;80.73;99467.16;4995514;28;20030;-76
2021/11/17 11:44:17;;;;;;;0.98;0.98;;;;;;;5.74;81.90;99472.66;4995403;28;20030;-76
2021/11/17 11:46:45;;;;;;;1.20;1.20;;;;;;;5.72;81.48;99464.06;4995791;28;20105;-76
2021/11/17 11:49:33;;;;;;;1.63;1.10;;;;;;;5.80;82.57;99467.63;4995189;28;20513;-76
2021/11/17 11:52:07;;;;;;;1.23;0.90;;;;;;;5.97;82.34;99464.41;4995381;28;20026;-70
2021/11/17 11:54:55;;;;;;;1.17;1.08;;;;;;;6.07;82.10;99461.09;4995149;28;20034;-70
2021/11/17 11:57:46;;;;;;;0.88;0.88;;;;;;;6.40;80.86;99456.28;4984017;28;20028;-79
2021/11/17 12:00:24;;;;;;;0.47;0.47;;;;;;;6.40;78.11;99451.16;4980198;28;20169;-79
2021/11/17 12:02:58;;;;;;;0.50;0.50;;;;;;;6.42;77.72;99458.88;4986099;28;20091;-79
2021/11/17 12:05:38;;;;;;;0.88;0.88;;;;;;;6.60;78.67;99455.63;4995140;28;20085;-79
2021/11/17 12:08:31;;;;;;;0.57;0.57;;;;;;;6.53;78.13;99451.28;4995253;28;20026;-79
2021/11/17 12:11:02;;;;;;;0.70;0.70;;;;;;;6.64;77.87;99449.66;4994750;28;20068;-79
2021/11/17 12:13:31;;;;;;;0.50;0.50;;;;;;;6.55;78.42;99459.84;4995006;28;20034;-70
2021/11/17 12:16:02;;;;;;;1.45;1.35;;;;;;;6.58;79.51;99459.91;4993505;28;20026;-70
2021/11/17 12:18:30;;;;;;;0.60;0.60;;;;;;;6.38;78.66;99465.72;4994777;28;20492;-70
2021/11/17 12:20:58;;;;;;;0.60;0.60;;;;;;;6.35;78.67;99472.53;4994517;28;20072;-70
2021/11/17 12:23:36;;;;;;;2.50;2.35;;;;;;;6.40;78.16;99471.72;4994923;28;20037;-70
2021/11/17 12:26:20;;;;;;;0.68;0.68;;;;;;;6.20;79.11;99478.38;4994850;28;20033;-70
2021/11/17 12:29:12;;;;;;;0.70;0.70;;;;;;;6.32;78.92;99462.19;4994123;28;20347;-70
2021/11/17 12:32:03;;;;;;;0.82;0.82;;;;;;;6.42;79.13;99467.44;4980380;28;20070;-70
2021/11/17 12:34:44;;;;;;;0.70;0.70;;;;;;;6.38;79.05;99462.25;4945222;28;20026;-70
2021/11/17 12:37:29;;;;;;;1.40;0.93;;;;;;;6.22;77.90;99466.41;4994547;28;20026;-71
2021/11/17 12:40:30;;;;;;;1.35;1.25;;;;;;;6.16;78.99;99466.34;4994374;28;20558;-70
2021/11/17 12:42:57;;;;;;;0.88;0.88;;;;;;;6.10;79.37;99466.28;4952853;28;20110;-75
2021/11/17 12:45:45;;;;;;;1.25;1.25;;;;;;;6.27;78.53;99457.00;4994619;28;20022;-70
2021/11/17 12:48:20;;;;;;;0.70;0.70;;;;;;;6.35;80.12;99472.53;4986305;28;20498;-70
2021/11/17 12:50:50;;;;;;;0.75;0.75;;;;;;;6.44;78.85;99462.34;4994058;28;20034;-79
2021/11/17 12:53:23;;;;;;;0.70;0.70;;;;;;;6.44;78.78;99452.91;4994536;28;20383;-76
2021/11/17 12:55:56;;;;;;;0.60;0.60;;;;;;;6.40;78.58;99460.59;4994326;28;20391;-79
2021/11/17 12:58:34;;;;;;;1.35;0.80;;;;;;;6.40;79.64;99461.44;4994297;28;20026;-70
2021/11/17 13:01:18;;;;;;;0.50;0.50;;;;;;;6.33;78.26;99454.50;4983307;28;20019;-79
2021/11/17 13:03:49;;;;;;;0.47;0.47;;;;;;;6.36;78.61;99458.81;4991916;28;20092;-79
2021/11/17 13:06:45;;;;;;;0.70;0.70;;;;;;;6.20;78.18;99473.25;4994043;28;20060;-79
2021/11/17 13:09:15;;;;;;;0.60;0.60;;;;;;;6.28;77.62;99468.16;4993836;28;20045;-79
2021/11/17 13:11:52;;;;;;;0.43;0.43;;;;;;;6.12;78.33;99469.72;4993763;28;20104;-79
2021/11/17 13:14:34;;;;;;;1.10;0.95;;;;;;;6.25;78.60;99466.44;4992667;28;20066;-79
2021/11/17 13:17:05;;;;;;;0.80;0.80;;;;;;;6.26;79.03;99470.72;4990461;28;20072;-75
2021/11/17 13:19:33;;;;;;;0.75;0.75;;;;;;;6.24;78.45;99469.88;4989399;28;20034;-75
2021/11/17 13:22:03;;;;;;;0.70;0.70;;;;;;;6.24;79.76;99464.72;4993539;28;20026;-75
2021/11/17 13:24:31;;;;;;;0.52;0.52;;;;;;;6.36;79.60;99464.81;4993641;28;20033;-75
2021/11/17 13:27:07;;;;;;;1.08;1.08;;;;;;;6.28;79.16;99463.00;4993658;28;20019;-75
2021/11/17 13:29:49;;;;;;;8.98;0.80;;;;;;;6.27;78.97;99464.72;4986596;28;20480;-75
2021/11/17 13:32:14;;;;;;;0.45;0.45;;;;;;;6.26;78.46;99470.72;4975764;28;20030;-76
2021/11/17 13:34:41;;;;;;;0.77;0.77;;;;;;;6.24;78.92;99469.88;4974011;28;20038;-75
2021/11/17 13:37:18;;;;;;;0.57;0.57;;;;;;;6.28;78.38;99476.75;4974025;28;20522;-75
2021/11/17 13:39:44;;;;;;;0.55;0.55;;;;;;;6.04;78.46;99473.91;4973792;28;20499;-75
2021/11/17 13:42:10;;;;;;;0.50;0.50;;;;;;;6.08;79.25;99478.25;4973950;28;20035;-76
2021/11/17 13:44:36;;;;;;;0.50;0.50;;;;;;;6.22;79.35;99481.84;4973893;28;20427;-76
2021/11/17 13:47:08;;;;;;;0.95;0.77;;;;;;;6.11;80.63;99483.44;4985222;28;20030;-75
2021/11/17 13:49:35;;;;;;;0.50;0.50;;;;;;;6.16;78.83;99487.78;4977418;28;20037;-76
2021/11/17 13:52:01;;;;;;;0.85;0.85;;;;;;;6.28;79.89;99491.31;4973706;28;20101;-76
2021/11/17 13:54:27;;;;;;;0.50;0.50;;;;;;;6.08;78.98;99491.09;4973676;28;20033;-76
2021/11/17 13:56:53;;;;;;;0.63;0.63;;;;;;;6.12;78.98;99487.72;4973806;28;20030;-70
2021/11/17 13:59:19;;;;;;;0.73;0.73;;;;;;;6.23;79.08;99483.56;4973306;28;20027;-70
2021/11/17 14:01:45;;;;;;;1.02;1.00;;;;;;;6.11;79.74;99475.72;4982572;28;20476;-79
2021/11/17 14:04:10;;;;;;;0.65;0.65;;;;;;;6.09;78.88;99479.97;4993064;28;20499;-79
2021/11/17 14:06:36;;;;;;;0.77;0.77;;;;;;;6.18;79.10;99480.06;4992982;28;20030;-79
2021/11/17 14:09:03;;;;;;;0.80;0.80;;;;;;;5.99;78.36;99480.72;4992666;28;20506;-79
2021/11/17 14:11:30;;;;;;;0.90;0.88;;;;;;;6.09;78.90;99485.09;4992847;28;20023;-70
2021/11/17 14:13:56;;;;;;;0.90;0.90;;;;;;;6.12;79.69;99490.28;4992695;28;20073;-70
2021/11/17 14:16:21;;;;;;;3.83;1.02;;;;;;;6.17;79.71;99496.34;4992426;28;20065;-70
2021/11/17 14:18:49;;;;;;;0.75;0.75;;;;;;;6.18;78.62;99492.94;4984671;28;20030;-70
2021/11/17 14:21:15;;;;;;;0.82;0.80;;;;;;;6.22;78.63;99497.28;4942876;28;20113;-70
2021/11/17 14:23:40;;;;;;;0.52;0.52;;;;;;;6.07;78.92;99492.81;4992637;28;20030;-70
2021/11/17 14:26:10;;;;;;;1.05;0.70;;;;;;;5.98;79.95;99502.13;4992340;28;20025;-70
2021/11/17 14:28:50;;;;;;;0.60;0.60;;;;;;;6.07;79.85;99504.81;4992423;28;20076;-70
2021/11/17 14:31:33;;;;;;;0.82;0.82;;;;;;;6.06;80.73;99505.66;4974923;28;20038;-70
2021/11/17 14:34:01;;;;;;;1.48;1.38;;;;;;;6.13;79.88;99497.16;4992233;28;20499;-70
2021/11/17 14:36:50;;;;;;;1.05;1.05;;;;;;;6.09;79.18;99501.44;4992578;28;20050;-70
2021/11/17 14:39:17;;;;;;;0.88;0.88;;;;;;;6.12;79.94;99501.44;4992301;28;20060;-70
2021/11/17 14:41:44;;;;;;;0.80;0.80;;;;;;;6.00;80.56;99503.03;4992420;28;20029;-70
2021/11/17 14:44:10;;;;;;;2.92;1.05;;;;;;;6.16;81.06;99507.50;4992480;28;20372;-70
2021/11/17 14:46:36;;;;;;;1.23;1.08;;;;;;;6.09;80.18;99505.69;4992297;28;20029;-70
2021/11/17 14:49:02;;;;;;;2.08;0.90;;;;;;;6.16;81.19;99507.50;4976510;28;20026;-70
2021/11/17 14:51:27;;;;;;;0.70;0.70;;;;;;;6.11;80.02;99499.72;4992236;28;20026;-70
2021/11/17 14:53:54;;;;;;;4.97;1.10;;;;;;;6.16;79.77;99504.94;4992236;28;20030;-70
2021/11/17 14:56:20;;;;;;;0.70;0.70;;;;;;;6.17;81.23;99509.22;4992225;28;20122;-70
2021/11/17 14:58:46;;;;;;;0.40;0.40;;;;;;;6.07;80.26;99509.97;4991896;28;20023;-70
2021/11/17 15:01:19;;;;;;;1.65;0.77;;;;;;;6.05;81.01;99511.66;4980539;28;20092;-70
2021/11/17 15:03:45;;;;;;;2.97;1.30;;;;;;;6.01;80.83;99497.03;4990149;28;20022;-70
2021/11/17 15:06:12;;;;;;;0.45;0.45;;;;;;;5.97;79.99;99510.69;4992220;28;20026;-70
2021/11/17 15:08:38;;;;;;;0.68;0.68;;;;;;;5.93;80.61;99505.50;4992196;28;20387;-70
2021/11/17 15:11:04;;;;;;;0.85;0.85;;;;;;;5.86;82.06;99507.97;4992047;28;20030;-70
2021/11/17 15:13:29;;;;;;;0.95;0.95;;;;;;;5.87;82.45;99518.25;4893259;28;20034;-70
2021/11/17 15:15:56;;;;;;;1.25;1.25;;;;;;;6.25;80.46;99512.75;4942839;28;20728;-75
2021/11/17 15:18:22;;;;;;;0.93;0.93;;;;;;;6.02;81.64;99524.47;4983900;28;20027;-75
2021/11/17 15:20:49;;;;;;;1.25;1.23;;;;;;;6.17;80.96;99529.81;4991911;28;20038;-76
2021/11/17 15:23:16;;;;;;;0.85;0.85;;;;;;;5.98;80.29;99535.56;4991967;28;20030;-76
2021/11/17 15:25:44;;;;;;;0.98;0.98;;;;;;;6.09;80.90;99526.25;4974728;28;20131;-78
2021/11/17 15:28:28;;;;;;;1.02;1.02;;;;;;;5.84;82.53;99531.06;4992130;28;20034;-76
2021/11/17 15:31:03;;;;;;;1.08;1.05;;;;;;;5.92;82.41;99529.50;4981897;28;20030;-75
2021/11/17 15:33:30;;;;;;;2.10;1.92;;;;;;;5.90;82.93;99535.47;4987999;28;20422;-76
2021/11/17 15:35:56;;;;;;;2.70;1.17;;;;;;;5.70;83.14;99542.03;4992029;28;20022;-76
2021/11/17 15:38:22;;;;;;;0.73;0.73;;;;;;;5.55;83.04;99532.38;4994513;28;20026;-76
2021/11/17 15:40:52;;;;;;;1.10;1.02;;;;;;;5.58;83.13;99535.00;4995383;28;20471;-76
2021/11/17 15:43:19;;;;;;;0.77;0.77;;;;;;;5.62;83.58;99529.06;4995571;28;20022;-76
2021/11/17 15:45:44;;;;;;;0.77;0.73;;;;;;;5.47;83.96;99528.88;4995365;28;20022;-76
2021/11/17 15:48:12;;;;;;;2.30;0.77;;;;;;;5.50;83.54;99536.59;4987216;28;20072;-77
2021/11/17 15:50:42;;;;;;;1.88;1.77;;;;;;;5.36;85.08;99539.81;4928831;28;20038;-80
2021/11/17 15:53:07;;;;;;;1.05;1.05;;;;;;;5.36;85.57;99542.38;4995494;28;20023;-80
2021/11/17 15:55:34;;;;;;;1.08;0.98;;;;;;;5.35;84.60;99545.81;4995359;28;20041;-80
2021/11/17 15:58:01;;;;;;;1.20;1.10;;;;;;;5.39;86.21;99551.88;4977994;28;20022;-80
2021/11/17 16:00:27;;;;;;;1.42;0.98;;;;;;;5.37;85.51;99554.41;4987413;28;20510;-80
2021/11/17 16:02:53;;;;;;;0.73;0.73;;;;;;;5.36;85.85;99552.66;4987414;28;20022;-79
2021/11/17 16:05:21;;;;;;;0.80;0.80;;;;;;;5.44;86.61;99555.38;4995033;28;20022;-79
2021/11/17 16:07:46;;;;;;;0.88;0.88;;;;;;;5.60;86.54;99556.44;4995188;28;20121;-79
2021/11/17 16:10:14;;;;;;;1.02;0.98;;;;;;;5.58;86.64;99564.16;4995056;28;20137;-80
2021/11/17 16:12:39;;;;;;;0.55;0.55;;;;;;;5.58;86.05;99563.28;4995109;28;20022;-79
2021/11/17 16:15:06;;;;;;;1.23;1.20;;;;;;;5.50;85.94;99562.28;4994771;28;20443;-79
2021/11/17 16:17:35;;;;;;;0.82;0.82;;;;;;;5.87;86.44;99566.28;4987241;28;20031;-80
2021/11/17 16:20:07;;;;;;;2.38;1.75;;;;;;;5.73;84.72;99562.63;4955856;29;20118;-79
2021/11/17 16:22:35;;;;;;;1.20;0.70;;;;;;;5.81;84.61;99563.63;4956076;29;20046;-76
2021/11/17 16:27:49;;;;;;;1.52;1.10;;;;;;;5.84;86.32;99579.06;4956461;29;20042;-79
2021/11/17 16:30:17;;;;;;;0.70;0.70;;;;;;;5.87;85.62;99586.84;4973467;28;20027;-79
2021/11/17 16:32:44;;;;;;;0.75;0.75;;;;;;;5.60;86.77;99593.28;4986715;28;20334;-79
2021/11/17 16:35:12;;;;;;;4.63;1.33;;;;;;;5.65;87.31;99595.94;4994439;28;20523;-80
2021/11/17 16:37:38;;;;;;;1.33;1.10;;;;;;;5.81;85.09;99595.34;4994596;28;20038;-80
2021/11/17 16:40:06;;;;;;;0.93;0.90;;;;;;;5.84;86.94;99597.94;4994286;28;20395;-80
2021/11/17 16:42:32;;;;;;;0.77;0.77;;;;;;;5.85;86.61;99602.25;4994344;28;20030;-80
2021/11/17 16:44:57;;;;;;;0.57;0.57;;;;;;;5.85;87.80;99612.53;4994470;28;20093;-79
2021/11/17 16:47:23;;;;;;;1.92;1.77;;;;;;;5.74;86.62;99610.63;4987907;28;20039;-80
2021/11/17 16:49:49;;;;;;;1.45;1.10;;;;;;;5.60;87.31;99613.00;4992235;28;20025;-79
2021/11/17 16:52:29;;;;;;;1.70;1.60;;;;;;;5.50;86.42;99606.84;4994203;28;20026;-79
2021/11/17 16:55:05;;;;;;;0.90;0.90;;;;;;;5.47;86.46;99611.97;4977513;28;20157;-79
2021/11/17 16:57:31;;;;;;;1.23;1.13;;;;;;;5.46;87.51;99609.34;4976702;28;20042;-80
2021/11/17 16:59:57;;;;;;;3.55;1.88;;;;;;;5.55;88.45;99622.34;4986654;28;20101;-76
2021/11/17 17:02:24;;;;;;;2.08;1.65;;;;;;;5.47;88.24;99621.38;4985772;28;20106;-76
2021/11/17 17:04:52;;;;;;;2.50;1.60;;;;;;;5.37;88.70;99628.06;4993947;28;20471;-76
2021/11/17 17:07:20;;;;;;;1.23;1.23;;;;;;;5.37;89.11;99636.66;4994239;28;20398;-75
2021/11/17 17:09:49;;;;;;;1.10;1.10;;;;;;;5.53;87.09;99631.75;4994060;28;20034;-69
2021/11/17 17:12:15;;;;;;;1.08;1.00;;;;;;;5.47;87.72;99641.94;4994000;28;20395;-78
2021/11/17 17:14:40;;;;;;;1.13;1.10;;;;;;;5.50;87.44;99635.13;4993778;28;20039;-78
2021/11/17 17:17:07;;;;;;;1.52;1.35;;;;;;;5.64;89.20;99646.50;4989595;28;20031;-78
2021/11/17 17:19:33;;;;;;;0.55;0.55;;;;;;;5.57;86.74;99638.69;4989765;28;20113;-77
2021/11/17 17:21:59;;;;;;;1.98;1.42;;;;;;;5.56;88.04;99648.09;4993648;28;20030;-78